createdAt,value
2023-02-22T00:03:16.645Z,100205.06
2023-02-22T00:08:19.484Z,100205.78
2023-02-22T00:13:23.808Z,100200.50
2023-02-22T00:18:28.734Z,100207.63
2023-02-22T00:23:32.984Z,100196.38
2023-02-22T00:28:37.344Z,100185.59
2023-02-22T00:33:41.130Z,100194.44
2023-02-22T00:38:43.920Z,100188.88
2023-02-22T00:43:49.073Z,100195.97
2023-02-22T00:48:51.922Z,100189.25
2023-02-22T00:53:54.682Z,100189.91
2023-02-22T00:58:58.817Z,100192.75
2023-02-22T01:04:01.552Z,100181.06
2023-02-22T01:09:05.299Z,100182.78
2023-02-22T01:14:09.849Z,100179.84
2023-02-22T01:19:12.891Z,100182.66
2023-02-22T01:24:16.590Z,100179.09
2023-02-22T01:29:22.074Z,100171.63
2023-02-22T01:34:25.971Z,100174.41
2023-02-22T01:39:28.754Z,100159.50
2023-02-22T01:44:36.135Z,100164.25
2023-02-22T01:49:44.181Z,100165.31
2023-02-22T01:54:51.019Z,100162.28
2023-02-22T02:00:01.666Z,100152.25
2023-02-22T02:05:08.213Z,100152.47
2023-02-22T02:10:14.430Z,100150.88
2023-02-22T02:15:26.478Z,100147.44
2023-02-22T02:20:35.953Z,100146.97
2023-02-22T02:26:11.800Z,100144.16
2023-02-22T02:31:47.968Z,100145.06
2023-02-22T02:37:02.822Z,100140.97
2023-02-22T02:42:12.078Z,100135.94
2023-02-22T02:47:20.348Z,100143.91
2023-02-22T02:52:27.429Z,100137.66
2023-02-22T02:57:30.176Z,100125.63
2023-02-22T03:02:46.261Z,100124.53
2023-02-22T03:08:02.325Z,100128.72
2023-02-22T03:13:11.682Z,100122.94
2023-02-22T03:18:22.723Z,100116.09
2023-02-22T03:23:32.582Z,100114.59
2023-02-22T03:28:37.392Z,100112.66
2023-02-22T03:33:44.220Z,100112.88
2023-02-22T03:38:50.993Z,100106.28
2023-02-22T03:43:59.656Z,100111.38
2023-02-22T03:49:08.904Z,100111.28
2023-02-22T03:54:16.772Z,100111.25
2023-02-22T03:59:26.081Z,100106.41
2023-02-22T04:04:29.223Z,100108.13
2023-02-22T04:09:33.959Z,100110.94
2023-02-22T04:14:36.954Z,100101.63
2023-02-22T04:19:39.902Z,100104.44
2023-02-22T04:24:45.307Z,100105.28
2023-02-22T04:29:48.110Z,100100.03
2023-02-22T04:34:51.229Z,100104.19
2023-02-22T04:39:55.978Z,100102.69
2023-02-22T04:44:58.890Z,100100.16
2023-02-22T04:50:02.246Z,100098.91
2023-02-22T04:55:08.469Z,100084.69
2023-02-22T05:00:18.045Z,100083.84
2023-02-22T05:05:22.297Z,100086.53
2023-02-22T05:10:26.535Z,100083.22
2023-02-22T05:15:29.316Z,100083.22
2023-02-22T05:20:34.235Z,100077.94
2023-02-22T05:25:38.625Z,100082.34
2023-02-22T05:30:41.625Z,100074.38
2023-02-22T05:35:44.500Z,100081.13
2023-02-22T05:40:48.642Z,100081.34
2023-02-22T05:45:51.497Z,100083.31
2023-02-22T05:50:54.319Z,100083.66
2023-02-22T05:55:58.555Z,100084.00
2023-02-22T06:01:03.133Z,100081.63
2023-02-22T06:06:06.539Z,100082.97
2023-02-22T06:11:10.768Z,100085.19
2023-02-22T06:16:13.726Z,100082.06
2023-02-22T06:21:17.484Z,100085.94
2023-02-22T06:26:22.880Z,100081.88
2023-02-22T06:31:25.626Z,100081.34
2023-02-22T06:36:28.422Z,100087.22
2023-02-22T06:41:32.598Z,100095.38
2023-02-22T06:46:35.421Z,100098.31
2023-02-22T06:51:38.849Z,100104.03
2023-02-22T06:56:42.981Z,100111.47
2023-02-22T07:01:45.877Z,100114.53
2023-02-22T07:06:49.599Z,100118.53
2023-02-22T07:11:54.000Z,100110.53
2023-02-22T07:16:56.717Z,100108.16
2023-02-22T07:21:59.688Z,100115.63
2023-02-22T07:27:03.782Z,100114.13
2023-02-22T07:32:06.872Z,100115.31
2023-02-22T07:37:09.762Z,100117.28
2023-02-22T07:42:14.253Z,100112.09
2023-02-22T07:47:17.000Z,100112.22
2023-02-22T07:52:19.778Z,100112.44
2023-02-22T07:57:24.000Z,100117.91
2023-02-22T08:02:27.576Z,100121.25
2023-02-22T08:07:30.383Z,100112.44
2023-02-22T08:12:34.871Z,100119.34
2023-02-22T08:17:38.444Z,100118.47
2023-02-22T08:22:44.514Z,100105.53
2023-02-22T08:27:49.366Z,100106.50
2023-02-22T08:32:52.745Z,100106.94
2023-02-22T08:37:57.460Z,100104.63
2023-02-22T08:43:02.432Z,100103.78
2023-02-22T08:48:05.801Z,100108.66
2023-02-22T08:53:09.747Z,100103.72
2023-02-22T08:58:14.190Z,100102.19
2023-02-22T09:03:17.364Z,100100.34
2023-02-22T09:08:20.182Z,100108.78
2023-02-22T09:13:24.429Z,100104.88
2023-02-22T09:18:42.337Z,100099.41
2023-02-22T09:23:48.480Z,100100.16
2023-02-22T09:28:52.642Z,100098.19
2023-02-22T09:33:55.543Z,100094.56
2023-02-22T09:38:59.077Z,100091.75
2023-02-22T09:44:17.546Z,100088.97
2023-02-22T09:49:24.997Z,100092.50
2023-02-22T09:54:34.180Z,100084.44
2023-02-22T09:59:43.351Z,100083.56
2023-02-22T10:04:52.738Z,100084.44
2023-02-22T10:09:57.259Z,100069.25
2023-02-22T10:15:29.801Z,100062.16
2023-02-22T10:20:43.865Z,100067.44
2023-02-22T10:25:53.758Z,100068.28
2023-02-22T10:31:04.326Z,100054.84
2023-02-22T10:36:16.773Z,100063.75
2023-02-22T10:41:27.392Z,100055.59
2023-02-22T10:46:34.585Z,100046.56
2023-02-22T10:51:39.268Z,100042.88
2023-02-22T10:56:48.802Z,100048.16
2023-02-22T11:01:53.434Z,100047.94
2023-02-22T11:07:10.954Z,100037.94
2023-02-22T11:12:20.893Z,100035.13
2023-02-22T11:17:31.436Z,100028.53
2023-02-22T11:22:41.990Z,100024.69
2023-02-22T11:27:46.977Z,100018.09
2023-02-22T11:32:56.581Z,100014.03
2023-02-22T11:38:12.738Z,100010.22
2023-02-22T11:43:19.592Z,100003.66
2023-02-22T11:48:23.833Z,99991.16
2023-02-22T11:53:32.820Z,99986.31
2023-02-22T11:58:45.698Z,99977.72
2023-02-22T12:04:17.159Z,99978.34
2023-02-22T12:09:28.039Z,99974.69
2023-02-22T12:14:41.969Z,99970.03
2023-02-22T12:19:50.122Z,99963.56
2023-02-22T12:25:09.065Z,99965.16
2023-02-22T12:30:20.199Z,99961.16
2023-02-22T12:35:27.048Z,99958.97
2023-02-22T12:40:36.547Z,99966.72
2023-02-22T12:45:46.267Z,99957.41
2023-02-22T12:50:55.136Z,99949.84
2023-02-22T12:56:06.313Z,99963.09
2023-02-22T13:01:20.004Z,99950.13
2023-02-22T13:06:37.278Z,99937.69
2023-02-22T13:11:48.348Z,99937.47
2023-02-22T13:16:58.330Z,99925.44
2023-02-22T13:22:07.576Z,99916.97
2023-02-22T13:27:15.629Z,99926.03
2023-02-22T13:32:30.480Z,99920.75
2023-02-22T13:37:56.747Z,99916.56
2023-02-22T13:43:16.133Z,99916.91
2023-02-22T13:48:45.777Z,99920.50
2023-02-22T13:53:56.096Z,99918.53
2023-02-22T13:59:02.365Z,99914.13
2023-02-22T14:04:22.779Z,99910.44
2023-02-22T14:09:46.137Z,99914.59
2023-02-22T14:15:29.734Z,99909.97
2023-02-22T14:20:36.190Z,99898.22
2023-02-22T14:25:43.345Z,99892.94
2023-02-22T14:30:46.501Z,99895.97
2023-02-22T14:35:51.093Z,99897.53
2023-02-22T14:40:58.519Z,99880.31
2023-02-22T14:46:05.306Z,99884.00
2023-02-22T14:51:21.954Z,99877.41
2023-02-22T14:56:36.153Z,99867.16
2023-02-22T15:01:50.872Z,99867.75
2023-02-22T15:07:00.871Z,99864.94
2023-02-22T15:12:22.231Z,99857.41
2023-02-22T15:17:25.974Z,99863.16
2023-02-22T15:22:35.593Z,99857.41
2023-02-22T15:27:45.856Z,99858.84
2023-02-22T15:33:03.218Z,99857.88
2023-02-22T15:38:19.950Z,99850.03
2023-02-22T15:43:28.616Z,99846.38
2023-02-22T15:48:33.217Z,99852.59
2023-02-22T15:53:41.419Z,99849.91
2023-02-22T15:58:48.316Z,99853.47
2023-02-22T16:03:54.009Z,99852.47
2023-02-22T16:08:59.814Z,99850.78
2023-02-22T16:14:06.858Z,99851.03
2023-02-22T16:19:33.554Z,99842.81
2023-02-22T16:24:37.512Z,99855.56
2023-02-22T16:29:41.857Z,99857.28
2023-02-22T16:34:44.732Z,99852.75
2023-02-22T16:39:47.558Z,99841.97
2023-02-22T16:44:52.518Z,99847.34
2023-02-22T16:49:57.018Z,99845.63
2023-02-22T16:55:01.880Z,99843.94
2023-02-22T17:00:09.721Z,99844.53
2023-02-22T17:05:15.102Z,99848.19
2023-02-22T17:10:18.925Z,99845.16
2023-02-22T17:15:25.618Z,99845.16
2023-02-22T17:20:30.942Z,99838.78
2023-02-22T17:25:37.576Z,99838.63
2023-02-22T17:30:43.965Z,99846.50
2023-02-22T17:35:47.905Z,99838.91
2023-02-22T17:40:51.994Z,99843.19
2023-02-22T17:45:56.820Z,99840.59
2023-02-22T17:50:59.669Z,99834.22
2023-02-22T17:56:06.566Z,99830.69
2023-02-22T18:01:20.961Z,99831.66
2023-02-22T18:06:28.278Z,99828.97
2023-02-22T18:11:32.644Z,99820.88
2023-02-22T18:16:38.925Z,99818.31
2023-02-22T18:21:41.746Z,99814.88
2023-02-22T18:26:44.565Z,99818.19
2023-02-22T18:31:48.758Z,99813.88
2023-02-22T18:36:51.701Z,99808.50
2023-02-22T18:41:54.519Z,99806.66
2023-02-22T18:46:58.714Z,99803.22
2023-02-22T18:52:01.594Z,99802.25
2023-02-22T18:57:04.430Z,99799.53
2023-02-22T19:02:13.642Z,99791.47
2023-02-22T19:07:18.247Z,99785.22
2023-02-22T19:12:21.194Z,99786.34
2023-02-22T19:17:26.497Z,99776.28
2023-02-22T19:22:32.743Z,99776.53
2023-02-22T19:27:35.606Z,99778.25
2023-02-22T19:32:44.612Z,99774.69
2023-02-22T19:37:48.055Z,99764.88
2023-02-22T19:42:53.144Z,99767.47
2023-02-22T19:47:57.583Z,99759.59
2023-02-22T19:53:00.602Z,99759.59
2023-02-22T19:58:03.536Z,99759.75
2023-02-22T20:03:09.231Z,99758.75
2023-02-22T20:08:12.049Z,99754.97
2023-02-22T20:13:16.995Z,99753.50
2023-02-22T20:18:23.001Z,99756.78
2023-02-22T20:23:26.047Z,99763.16
2023-02-22T20:28:30.039Z,99763.06
2023-02-22T20:33:34.556Z,99756.41
2023-02-22T20:38:38.061Z,99757.28
2023-02-22T20:43:41.195Z,99755.06
2023-02-22T20:48:45.890Z,99749.56
2023-02-22T20:53:48.943Z,99753.47
2023-02-22T20:58:52.042Z,99754.97
2023-02-22T21:04:00.415Z,99755.31
2023-02-22T21:09:07.181Z,99761.78
2023-02-22T21:14:12.350Z,99773.06
2023-02-22T21:19:25.179Z,99765.81
2023-02-22T21:24:29.783Z,99763.63
2023-02-22T21:29:35.345Z,99759.34
2023-02-22T21:34:40.347Z,99757.00
2023-02-22T21:39:47.457Z,99763.38
2023-02-22T21:44:54.390Z,99757.63
2023-02-22T21:49:58.889Z,99751.84
2023-02-22T21:55:01.658Z,99747.91
2023-02-22T22:00:12.861Z,99758.97
2023-02-22T22:05:31.507Z,99753.19
2023-02-22T22:10:34.540Z,99752.97
2023-02-22T22:15:37.522Z,99752.97
2023-02-22T22:20:44.651Z,99755.03
2023-02-22T22:25:51.000Z,99755.31
2023-02-22T22:30:53.915Z,99756.16
2023-02-22T22:35:59.259Z,99759.00
2023-02-22T22:41:05.500Z,99754.34
2023-02-22T22:46:09.498Z,99763.16
2023-02-22T22:51:15.154Z,99763.63
2023-02-22T22:56:19.561Z,99758.09
2023-02-22T23:01:27.091Z,99760.81
2023-02-22T23:06:33.704Z,99761.06
2023-02-22T23:11:36.498Z,99765.47
2023-02-22T23:16:39.783Z,99763.50
2023-02-22T23:21:44.520Z,99768.41
2023-02-22T23:26:49.383Z,99765.47
2023-02-22T23:31:54.332Z,99762.28
2023-02-22T23:36:58.593Z,99760.34
2023-02-22T23:42:02.924Z,99755.53
2023-02-22T23:47:05.840Z,99758.59
2023-02-22T23:52:13.232Z,99760.44
2023-02-22T23:57:17.498Z,99767.19
